Etusivu
METAR-TAF:

METAR-TAF

Lentoasemat :

Santa Clara, Kuuba

Leveyspiiri: 22-29-32N, Pituuspiiri: 079-56-37W, korkeus merenpinnasta: 103 m

Tämänhetkinen sää

Tämä raportti tehtiin 20 minuuttia sitten, kello 10.52 UTC
tyyntä
Lämpötila 16°C
Kosteus 94%
Ilmanpaine 1019 hPa
Näkyvyys: 9000 m
Hajanaisia pilviä 4000 ft:n korkeudessa

METAR: MUSC 061052Z 00000KT 9000 SCT040 16/15 Q1019

Aika: 06:12 (11:12 UTC)

Sääennuste

Tämä raportti tehtiin 6 tuntia ja 12 minuuttia sitten, kello 05.00 UTC
Ennuste voimassa 06. päivästä klo 06 UTC - 07. päivään klo 06 UTC
Tuuli 3 kn eri suunnista
Näkyvyys: 9000 m
Hajanaisia pilviä 2000 ft:n korkeudessa
Tulossa
06. päivästä klo 15 UTC - 06. päivään klo 17 UTC
Tuuli 8 kn idästä/koillisesta
Tulossa
07. päivästä klo 01 UTC - 07. päivään klo 03 UTC
Tuuli 3 kn eri suunnista

TAF: MUSC 060500Z 0606/0706 VRB03KT 9000 SCT020 BECMG 0615/0617 06008KT BECMG 0701/0703 VRB03KT

Säähavainnot ja -ennusteet yli 4000 lentoasemalta (METAR- ja TAF-raportit).

Käytössä olevat sääasemat on merkitty karttaan keltaisilla ja punaisilla pisteillä.

Aseta hiiri pisteen päälle nähdäksesi sääaseman nimen.

Klikkaa sitten nähdäksesi säähavainnot ja -ennusteet.

Kartan vaihtaminen: klikkaa mustalla rastilla varustettuja vihreitä pisteitä, niin voit zoomata sisään; viivalla varustettua vihreää pistettä, niin voit zoomata ulos tai vihreitä nuolia, niin pääset viereisille kartoille.


METAR-TAF: